sensor_id;sensor_type;location;lat;lon;timestamp;P1;durP1;ratioP1;P2;durP2;ratioP2
26598;SDS011;14240;51.064;16.612;2022-12-18T00:01:01;80.85;;;23.75;;
26598;SDS011;14240;51.064;16.612;2022-12-18T00:03:32;79.70;;;22.70;;
26598;SDS011;14240;51.064;16.612;2022-12-18T00:05:58;69.07;;;23.80;;
26598;SDS011;14240;51.064;16.612;2022-12-18T00:08:24;75.45;;;22.80;;
26598;SDS011;14240;51.064;16.612;2022-12-18T00:10:50;77.25;;;24.10;;
26598;SDS011;14240;51.064;16.612;2022-12-18T00:13:15;81.03;;;24.98;;
26598;SDS011;14240;51.064;16.612;2022-12-18T00:15:41;78.22;;;23.70;;
26598;SDS011;14240;51.064;16.612;2022-12-18T00:18:07;78.55;;;23.15;;
26598;SDS011;14240;51.064;16.612;2022-12-18T00:20:37;83.80;;;25.15;;
26598;SDS011;14240;51.064;16.612;2022-12-18T00:23:04;68.72;;;23.92;;
26598;SDS011;14240;51.064;16.612;2022-12-18T00:25:34;85.55;;;27.02;;
26598;SDS011;14240;51.064;16.612;2022-12-18T00:28:00;81.38;;;25.77;;
26598;SDS011;14240;51.064;16.612;2022-12-18T00:30:27;75.50;;;22.73;;
26598;SDS011;14240;51.064;16.612;2022-12-18T00:32:52;90.55;;;24.08;;
26598;SDS011;14240;51.064;16.612;2022-12-18T00:35:18;73.78;;;23.25;;
26598;SDS011;14240;51.064;16.612;2022-12-18T00:37:44;84.20;;;24.17;;
26598;SDS011;14240;51.064;16.612;2022-12-18T00:40:10;75.60;;;22.52;;
26598;SDS011;14240;51.064;16.612;2022-12-18T00:42:36;73.97;;;22.77;;
26598;SDS011;14240;51.064;16.612;2022-12-18T00:45:20;96.88;;;26.58;;
26598;SDS011;14240;51.064;16.612;2022-12-18T00:47:46;90.35;;;27.08;;
26598;SDS011;14240;51.064;16.612;2022-12-18T00:50:12;91.97;;;27.10;;
26598;SDS011;14240;51.064;16.612;2022-12-18T00:52:38;87.95;;;27.35;;
26598;SDS011;14240;51.064;16.612;2022-12-18T00:55:04;83.53;;;27.27;;
26598;SDS011;14240;51.064;16.612;2022-12-18T00:57:30;86.50;;;25.58;;
26598;SDS011;14240;51.064;16.612;2022-12-18T00:59:55;71.95;;;23.90;;
26598;SDS011;14240;51.064;16.612;2022-12-18T01:02:21;64.80;;;22.20;;
26598;SDS011;14240;51.064;16.612;2022-12-18T01:04:47;63.53;;;18.88;;
26598;SDS011;14240;51.064;16.612;2022-12-18T01:07:12;69.40;;;18.52;;
26598;SDS011;14240;51.064;16.612;2022-12-18T01:09:38;62.30;;;18.20;;
26598;SDS011;14240;51.064;16.612;2022-12-18T01:12:04;66.20;;;18.77;;
26598;SDS011;14240;51.064;16.612;2022-12-18T01:14:30;50.15;;;17.50;;
26598;SDS011;14240;51.064;16.612;2022-12-18T01:16:55;60.05;;;18.40;;
26598;SDS011;14240;51.064;16.612;2022-12-18T01:19:22;58.65;;;20.05;;
26598;SDS011;14240;51.064;16.612;2022-12-18T01:21:49;58.20;;;16.63;;
26598;SDS011;14240;51.064;16.612;2022-12-18T01:24:14;61.08;;;17.58;;
26598;SDS011;14240;51.064;16.612;2022-12-18T01:26:40;47.67;;;16.75;;
26598;SDS011;14240;51.064;16.612;2022-12-18T01:29:06;46.60;;;15.02;;
26598;SDS011;14240;51.064;16.612;2022-12-18T01:31:32;55.97;;;16.58;;
26598;SDS011;14240;51.064;16.612;2022-12-18T01:34:02;47.38;;;15.98;;
26598;SDS011;14240;51.064;16.612;2022-12-18T01:36:32;49.08;;;15.27;;
26598;SDS011;14240;51.064;16.612;2022-12-18T01:39:00;44.13;;;15.25;;
26598;SDS011;14240;51.064;16.612;2022-12-18T01:41:28;44.38;;;14.60;;
26598;SDS011;14240;51.064;16.612;2022-12-18T01:47:15;44.38;;;13.15;;
26598;SDS011;14240;51.064;16.612;2022-12-18T01:49:55;49.88;;;15.20;;
26598;SDS011;14240;51.064;16.612;2022-12-18T01:52:24;46.25;;;14.45;;
26598;SDS011;14240;51.064;16.612;2022-12-18T01:54:53;38.97;;;15.10;;
26598;SDS011;14240;51.064;16.612;2022-12-18T01:57:20;45.10;;;16.13;;
26598;SDS011;14240;51.064;16.612;2022-12-18T01:59:47;43.70;;;13.90;;
26598;SDS011;14240;51.064;16.612;2022-12-18T02:02:17;42.30;;;14.15;;
26598;SDS011;14240;51.064;16.612;2022-12-18T02:04:45;51.50;;;16.38;;
26598;SDS011;14240;51.064;16.612;2022-12-18T02:07:13;50.95;;;16.08;;
26598;SDS011;14240;51.064;16.612;2022-12-18T02:10:06;51.50;;;17.27;;
26598;SDS011;14240;51.064;16.612;2022-12-18T02:18:12;46.05;;;15.07;;
26598;SDS011;14240;51.064;16.612;2022-12-18T02:20:47;38.83;;;15.13;;
26598;SDS011;14240;51.064;16.612;2022-12-18T02:23:26;46.95;;;14.77;;
26598;SDS011;14240;51.064;16.612;2022-12-18T02:28:51;45.08;;;14.88;;
26598;SDS011;14240;51.064;16.612;2022-12-18T02:31:25;53.53;;;15.55;;
26598;SDS011;14240;51.064;16.612;2022-12-18T02:33:55;50.65;;;15.18;;
26598;SDS011;14240;51.064;16.612;2022-12-18T02:36:23;46.15;;;13.25;;
26598;SDS011;14240;51.064;16.612;2022-12-18T02:38:51;44.45;;;13.73;;
26598;SDS011;14240;51.064;16.612;2022-12-18T02:41:18;39.25;;;14.30;;
26598;SDS011;14240;51.064;16.612;2022-12-18T02:43:49;40.80;;;13.23;;
26598;SDS011;14240;51.064;16.612;2022-12-18T02:46:24;56.07;;;16.13;;
26598;SDS011;14240;51.064;16.612;2022-12-18T02:49:28;51.78;;;14.95;;
26598;SDS011;14240;51.064;16.612;2022-12-18T02:57:14;45.58;;;15.80;;
26598;SDS011;14240;51.064;16.612;2022-12-18T02:59:49;49.90;;;15.55;;
26598;SDS011;14240;51.064;16.612;2022-12-18T03:05:44;49.70;;;15.18;;
26598;SDS011;14240;51.064;16.612;2022-12-18T03:08:18;47.03;;;15.00;;
26598;SDS011;14240;51.064;16.612;2022-12-18T03:11:07;46.55;;;16.67;;
26598;SDS011;14240;51.064;16.612;2022-12-18T03:13:43;45.88;;;15.82;;
26598;SDS011;14240;51.064;16.612;2022-12-18T03:16:27;51.63;;;14.90;;
26598;SDS011;14240;51.064;16.612;2022-12-18T03:18:56;41.58;;;14.65;;
26598;SDS011;14240;51.064;16.612;2022-12-18T03:21:28;38.08;;;13.18;;
26598;SDS011;14240;51.064;16.612;2022-12-18T03:23:59;45.50;;;14.70;;
26598;SDS011;14240;51.064;16.612;2022-12-18T03:26:28;45.35;;;16.02;;
26598;SDS011;14240;51.064;16.612;2022-12-18T03:28:56;42.40;;;15.77;;
26598;SDS011;14240;51.064;16.612;2022-12-18T03:31:28;45.75;;;16.42;;
26598;SDS011;14240;51.064;16.612;2022-12-18T03:34:01;46.25;;;15.32;;
26598;SDS011;14240;51.064;16.612;2022-12-18T03:36:30;52.67;;;16.52;;
26598;SDS011;14240;51.064;16.612;2022-12-18T03:38:56;53.67;;;18.38;;
26598;SDS011;14240;51.064;16.612;2022-12-18T03:41:32;46.92;;;15.65;;
26598;SDS011;14240;51.064;16.612;2022-12-18T03:44:09;46.22;;;15.45;;
26598;SDS011;14240;51.064;16.612;2022-12-18T03:49:11;53.40;;;19.05;;
26598;SDS011;14240;51.064;16.612;2022-12-18T03:52:01;55.85;;;20.77;;
26598;SDS011;14240;51.064;16.612;2022-12-18T03:54:34;44.22;;;17.30;;
26598;SDS011;14240;51.064;16.612;2022-12-18T03:57:04;47.30;;;16.48;;
26598;SDS011;14240;51.064;16.612;2022-12-18T03:59:37;55.28;;;18.42;;
26598;SDS011;14240;51.064;16.612;2022-12-18T04:02:04;54.63;;;21.33;;
26598;SDS011;14240;51.064;16.612;2022-12-18T04:04:33;46.85;;;16.85;;
26598;SDS011;14240;51.064;16.612;2022-12-18T04:09:26;55.60;;;16.52;;
26598;SDS011;14240;51.064;16.612;2022-12-18T04:11:53;47.03;;;13.85;;
26598;SDS011;14240;51.064;16.612;2022-12-18T04:14:19;38.85;;;14.07;;
26598;SDS011;14240;51.064;16.612;2022-12-18T04:16:45;44.45;;;15.65;;
26598;SDS011;14240;51.064;16.612;2022-12-18T04:19:10;45.05;;;14.98;;
26598;SDS011;14240;51.064;16.612;2022-12-18T04:21:36;48.65;;;15.85;;
26598;SDS011;14240;51.064;16.612;2022-12-18T04:24:02;44.20;;;15.32;;
26598;SDS011;14240;51.064;16.612;2022-12-18T04:26:27;47.30;;;15.48;;
26598;SDS011;14240;51.064;16.612;2022-12-18T04:28:53;46.95;;;14.52;;
26598;SDS011;14240;51.064;16.612;2022-12-18T04:31:19;44.65;;;15.15;;
26598;SDS011;14240;51.064;16.612;2022-12-18T04:33:45;52.40;;;17.63;;
26598;SDS011;14240;51.064;16.612;2022-12-18T04:36:10;53.83;;;18.35;;
26598;SDS011;14240;51.064;16.612;2022-12-18T04:38:37;53.45;;;19.00;;
26598;SDS011;14240;51.064;16.612;2022-12-18T04:41:03;54.95;;;20.30;;
26598;SDS011;14240;51.064;16.612;2022-12-18T04:43:29;47.42;;;15.13;;
26598;SDS011;14240;51.064;16.612;2022-12-18T04:46:00;49.00;;;18.02;;
26598;SDS011;14240;51.064;16.612;2022-12-18T04:48:30;48.95;;;15.80;;
26598;SDS011;14240;51.064;16.612;2022-12-18T04:50:56;54.65;;;16.88;;
26598;SDS011;14240;51.064;16.612;2022-12-18T04:53:22;52.25;;;20.23;;
26598;SDS011;14240;51.064;16.612;2022-12-18T04:55:48;55.17;;;19.40;;
26598;SDS011;14240;51.064;16.612;2022-12-18T04:58:14;48.20;;;19.10;;
26598;SDS011;14240;51.064;16.612;2022-12-18T05:00:39;58.20;;;18.73;;
26598;SDS011;14240;51.064;16.612;2022-12-18T05:03:05;58.22;;;22.23;;
26598;SDS011;14240;51.064;16.612;2022-12-18T05:05:31;59.13;;;19.50;;
26598;SDS011;14240;51.064;16.612;2022-12-18T05:07:59;52.30;;;18.08;;
26598;SDS011;14240;51.064;16.612;2022-12-18T05:10:24;52.58;;;16.23;;
26598;SDS011;14240;51.064;16.612;2022-12-18T05:12:50;55.35;;;17.75;;
26598;SDS011;14240;51.064;16.612;2022-12-18T05:15:29;54.60;;;18.95;;
26598;SDS011;14240;51.064;16.612;2022-12-18T05:17:56;51.72;;;19.23;;
26598;SDS011;14240;51.064;16.612;2022-12-18T05:20:22;57.70;;;19.37;;
26598;SDS011;14240;51.064;16.612;2022-12-18T05:22:49;52.15;;;18.00;;
26598;SDS011;14240;51.064;16.612;2022-12-18T05:25:15;51.00;;;17.90;;
26598;SDS011;14240;51.064;16.612;2022-12-18T05:27:41;56.50;;;20.65;;
26598;SDS011;14240;51.064;16.612;2022-12-18T05:30:08;46.10;;;17.83;;
26598;SDS011;14240;51.064;16.612;2022-12-18T05:32:34;52.75;;;17.80;;
26598;SDS011;14240;51.064;16.612;2022-12-18T05:35:00;54.70;;;18.63;;
26598;SDS011;14240;51.064;16.612;2022-12-18T05:37:26;51.63;;;18.40;;
26598;SDS011;14240;51.064;16.612;2022-12-18T05:39:52;44.95;;;17.73;;
26598;SDS011;14240;51.064;16.612;2022-12-18T05:42:17;56.65;;;20.35;;
26598;SDS011;14240;51.064;16.612;2022-12-18T05:44:43;52.72;;;20.25;;
26598;SDS011;14240;51.064;16.612;2022-12-18T05:47:09;47.75;;;18.10;;
26598;SDS011;14240;51.064;16.612;2022-12-18T05:49:35;55.60;;;18.25;;
26598;SDS011;14240;51.064;16.612;2022-12-18T05:52:00;50.05;;;17.67;;
26598;SDS011;14240;51.064;16.612;2022-12-18T05:54:27;60.17;;;19.65;;
26598;SDS011;14240;51.064;16.612;2022-12-18T05:56:53;56.03;;;17.75;;
26598;SDS011;14240;51.064;16.612;2022-12-18T05:59:19;52.20;;;18.55;;
26598;SDS011;14240;51.064;16.612;2022-12-18T06:01:45;51.47;;;18.92;;
26598;SDS011;14240;51.064;16.612;2022-12-18T06:04:11;50.65;;;17.08;;
26598;SDS011;14240;51.064;16.612;2022-12-18T06:06:37;58.35;;;19.73;;
26598;SDS011;14240;51.064;16.612;2022-12-18T06:09:02;63.72;;;22.13;;
26598;SDS011;14240;51.064;16.612;2022-12-18T06:11:33;62.25;;;22.00;;
26598;SDS011;14240;51.064;16.612;2022-12-18T06:13:59;62.05;;;21.52;;
26598;SDS011;14240;51.064;16.612;2022-12-18T06:16:26;67.35;;;22.15;;
26598;SDS011;14240;51.064;16.612;2022-12-18T06:18:53;56.20;;;19.73;;
26598;SDS011;14240;51.064;16.612;2022-12-18T06:21:25;54.17;;;20.95;;
26598;SDS011;14240;51.064;16.612;2022-12-18T06:23:51;66.88;;;23.10;;
26598;SDS011;14240;51.064;16.612;2022-12-18T06:26:17;56.78;;;20.10;;
26598;SDS011;14240;51.064;16.612;2022-12-18T06:28:42;58.15;;;19.80;;
26598;SDS011;14240;51.064;16.612;2022-12-18T06:31:08;58.03;;;19.75;;
26598;SDS011;14240;51.064;16.612;2022-12-18T06:33:35;58.27;;;20.97;;
26598;SDS011;14240;51.064;16.612;2022-12-18T06:36:02;67.45;;;23.48;;
26598;SDS011;14240;51.064;16.612;2022-12-18T06:38:31;54.80;;;20.80;;
26598;SDS011;14240;51.064;16.612;2022-12-18T06:40:57;65.85;;;22.00;;
26598;SDS011;14240;51.064;16.612;2022-12-18T06:43:23;64.35;;;21.77;;
26598;SDS011;14240;51.064;16.612;2022-12-18T06:45:48;54.88;;;19.15;;
26598;SDS011;14240;51.064;16.612;2022-12-18T06:48:18;56.17;;;19.55;;
26598;SDS011;14240;51.064;16.612;2022-12-18T06:50:44;66.65;;;20.98;;
26598;SDS011;14240;51.064;16.612;2022-12-18T06:53:10;53.92;;;21.00;;
26598;SDS011;14240;51.064;16.612;2022-12-18T06:55:36;58.15;;;19.20;;
26598;SDS011;14240;51.064;16.612;2022-12-18T06:58:02;58.20;;;22.60;;
26598;SDS011;14240;51.064;16.612;2022-12-18T07:00:28;63.55;;;19.58;;
26598;SDS011;14240;51.064;16.612;2022-12-18T07:02:53;58.00;;;21.13;;
26598;SDS011;14240;51.064;16.612;2022-12-18T07:05:19;59.70;;;21.27;;
26598;SDS011;14240;51.064;16.612;2022-12-18T07:07:45;62.80;;;21.98;;
26598;SDS011;14240;51.064;16.612;2022-12-18T07:10:10;61.88;;;22.13;;
26598;SDS011;14240;51.064;16.612;2022-12-18T07:12:36;60.83;;;22.58;;
26598;SDS011;14240;51.064;16.612;2022-12-18T07:15:02;63.03;;;22.90;;
26598;SDS011;14240;51.064;16.612;2022-12-18T07:17:28;50.25;;;19.13;;
26598;SDS011;14240;51.064;16.612;2022-12-18T07:19:54;55.03;;;20.95;;
26598;SDS011;14240;51.064;16.612;2022-12-18T07:22:20;66.13;;;22.20;;
26598;SDS011;14240;51.064;16.612;2022-12-18T07:24:46;67.25;;;20.48;;
26598;SDS011;14240;51.064;16.612;2022-12-18T07:27:11;51.78;;;20.48;;
26598;SDS011;14240;51.064;16.612;2022-12-18T07:29:37;55.75;;;19.90;;
26598;SDS011;14240;51.064;16.612;2022-12-18T07:32:03;55.38;;;18.95;;
26598;SDS011;14240;51.064;16.612;2022-12-18T07:34:29;57.42;;;18.63;;
26598;SDS011;14240;51.064;16.612;2022-12-18T07:36:54;59.17;;;19.65;;
26598;SDS011;14240;51.064;16.612;2022-12-18T07:39:20;55.72;;;19.27;;
26598;SDS011;14240;51.064;16.612;2022-12-18T07:41:46;48.53;;;18.95;;
26598;SDS011;14240;51.064;16.612;2022-12-18T07:44:31;52.25;;;16.80;;
26598;SDS011;14240;51.064;16.612;2022-12-18T07:46:57;48.78;;;16.98;;
26598;SDS011;14240;51.064;16.612;2022-12-18T07:49:23;50.75;;;17.63;;
26598;SDS011;14240;51.064;16.612;2022-12-18T07:51:53;53.58;;;19.20;;
26598;SDS011;14240;51.064;16.612;2022-12-18T07:54:22;48.03;;;17.98;;
26598;SDS011;14240;51.064;16.612;2022-12-18T07:56:48;49.97;;;18.17;;
26598;SDS011;14240;51.064;16.612;2022-12-18T07:59:14;52.53;;;19.20;;
26598;SDS011;14240;51.064;16.612;2022-12-18T08:01:40;54.25;;;21.40;;
26598;SDS011;14240;51.064;16.612;2022-12-18T08:04:06;47.30;;;16.75;;
26598;SDS011;14240;51.064;16.612;2022-12-18T08:06:31;50.38;;;18.73;;
26598;SDS011;14240;51.064;16.612;2022-12-18T08:08:57;48.78;;;17.88;;
26598;SDS011;14240;51.064;16.612;2022-12-18T08:11:24;52.45;;;17.92;;
26598;SDS011;14240;51.064;16.612;2022-12-18T08:13:51;46.97;;;17.27;;
26598;SDS011;14240;51.064;16.612;2022-12-18T08:16:18;51.38;;;18.13;;
26598;SDS011;14240;51.064;16.612;2022-12-18T08:18:44;52.28;;;17.38;;
26598;SDS011;14240;51.064;16.612;2022-12-18T08:23:37;49.77;;;19.13;;
26598;SDS011;14240;51.064;16.612;2022-12-18T08:26:03;50.58;;;17.90;;
26598;SDS011;14240;51.064;16.612;2022-12-18T08:28:29;52.47;;;18.42;;
26598;SDS011;14240;51.064;16.612;2022-12-18T08:30:55;53.03;;;17.95;;
26598;SDS011;14240;51.064;16.612;2022-12-18T08:33:21;52.00;;;18.95;;
26598;SDS011;14240;51.064;16.612;2022-12-18T08:35:46;53.95;;;18.67;;
26598;SDS011;14240;51.064;16.612;2022-12-18T08:38:12;48.20;;;19.00;;
26598;SDS011;14240;51.064;16.612;2022-12-18T08:40:38;62.30;;;19.75;;
26598;SDS011;14240;51.064;16.612;2022-12-18T08:43:03;51.85;;;20.38;;
26598;SDS011;14240;51.064;16.612;2022-12-18T08:45:48;52.08;;;18.05;;
26598;SDS011;14240;51.064;16.612;2022-12-18T08:48:14;61.28;;;20.73;;
26598;SDS011;14240;51.064;16.612;2022-12-18T08:50:40;49.13;;;18.05;;
26598;SDS011;14240;51.064;16.612;2022-12-18T08:53:05;55.03;;;18.60;;
26598;SDS011;14240;51.064;16.612;2022-12-18T08:55:31;49.88;;;18.80;;
26598;SDS011;14240;51.064;16.612;2022-12-18T08:57:57;60.88;;;19.63;;
26598;SDS011;14240;51.064;16.612;2022-12-18T09:00:23;52.40;;;18.20;;
26598;SDS011;14240;51.064;16.612;2022-12-18T09:02:49;53.40;;;18.85;;
26598;SDS011;14240;51.064;16.612;2022-12-18T09:05:14;52.78;;;19.50;;
26598;SDS011;14240;51.064;16.612;2022-12-18T09:07:40;57.78;;;20.05;;
26598;SDS011;14240;51.064;16.612;2022-12-18T09:10:06;64.25;;;21.17;;
26598;SDS011;14240;51.064;16.612;2022-12-18T09:12:32;54.78;;;19.17;;
26598;SDS011;14240;51.064;16.612;2022-12-18T09:14:57;54.05;;;20.65;;
26598;SDS011;14240;51.064;16.612;2022-12-18T09:17:24;55.45;;;20.58;;
26598;SDS011;14240;51.064;16.612;2022-12-18T09:19:49;56.88;;;21.38;;
26598;SDS011;14240;51.064;16.612;2022-12-18T09:22:15;54.63;;;19.25;;
26598;SDS011;14240;51.064;16.612;2022-12-18T09:24:41;48.97;;;20.95;;
26598;SDS011;14240;51.064;16.612;2022-12-18T09:27:07;64.10;;;24.25;;
26598;SDS011;14240;51.064;16.612;2022-12-18T09:29:33;55.47;;;22.15;;
26598;SDS011;14240;51.064;16.612;2022-12-18T09:31:58;63.65;;;23.58;;
26598;SDS011;14240;51.064;16.612;2022-12-18T09:34:24;55.28;;;23.05;;
26598;SDS011;14240;51.064;16.612;2022-12-18T09:36:50;62.78;;;25.38;;
26598;SDS011;14240;51.064;16.612;2022-12-18T09:39:16;54.08;;;23.13;;
26598;SDS011;14240;51.064;16.612;2022-12-18T09:41:50;51.75;;;23.95;;
26598;SDS011;14240;51.064;16.612;2022-12-18T09:44:27;63.65;;;24.63;;
26598;SDS011;14240;51.064;16.612;2022-12-18T09:49:23;58.60;;;25.02;;
26598;SDS011;14240;51.064;16.612;2022-12-18T09:51:56;57.72;;;26.15;;
26598;SDS011;14240;51.064;16.612;2022-12-18T09:54:35;57.40;;;25.08;;
26598;SDS011;14240;51.064;16.612;2022-12-18T09:57:15;58.38;;;23.90;;
26598;SDS011;14240;51.064;16.612;2022-12-18T09:59:46;57.88;;;25.08;;
26598;SDS011;14240;51.064;16.612;2022-12-18T10:02:32;57.95;;;24.38;;
26598;SDS011;14240;51.064;16.612;2022-12-18T10:10:42;64.40;;;26.10;;
26598;SDS011;14240;51.064;16.612;2022-12-18T10:16:23;52.72;;;23.10;;
26598;SDS011;14240;51.064;16.612;2022-12-18T10:24:26;49.90;;;22.55;;
26598;SDS011;14240;51.064;16.612;2022-12-18T10:27:12;59.67;;;26.60;;
26598;SDS011;14240;51.064;16.612;2022-12-18T10:29:41;57.95;;;24.48;;
26598;SDS011;14240;51.064;16.612;2022-12-18T10:32:13;58.22;;;25.67;;
26598;SDS011;14240;51.064;16.612;2022-12-18T10:34:44;55.13;;;25.25;;
26598;SDS011;14240;51.064;16.612;2022-12-18T10:37:13;55.35;;;25.40;;
26598;SDS011;14240;51.064;16.612;2022-12-18T10:39:46;53.85;;;24.30;;
26598;SDS011;14240;51.064;16.612;2022-12-18T10:42:29;50.88;;;23.95;;
26598;SDS011;14240;51.064;16.612;2022-12-18T10:45:11;58.22;;;23.25;;
26598;SDS011;14240;51.064;16.612;2022-12-18T10:47:42;62.10;;;25.02;;
26598;SDS011;14240;51.064;16.612;2022-12-18T10:50:20;65.60;;;27.13;;
26598;SDS011;14240;51.064;16.612;2022-12-18T10:52:56;59.60;;;24.33;;
26598;SDS011;14240;51.064;16.612;2022-12-18T10:55:27;60.40;;;23.70;;
26598;SDS011;14240;51.064;16.612;2022-12-18T11:01:01;56.38;;;23.40;;
26598;SDS011;14240;51.064;16.612;2022-12-18T11:03:34;67.00;;;24.52;;
26598;SDS011;14240;51.064;16.612;2022-12-18T11:08:44;59.17;;;24.08;;
26598;SDS011;14240;51.064;16.612;2022-12-18T11:11:24;59.88;;;23.83;;
26598;SDS011;14240;51.064;16.612;2022-12-18T11:16:36;62.00;;;22.83;;
26598;SDS011;14240;51.064;16.612;2022-12-18T11:19:11;57.58;;;21.02;;
26598;SDS011;14240;51.064;16.612;2022-12-18T11:21:46;60.50;;;23.47;;
26598;SDS011;14240;51.064;16.612;2022-12-18T11:24:31;58.53;;;23.08;;
26598;SDS011;14240;51.064;16.612;2022-12-18T11:29:34;57.55;;;20.30;;
26598;SDS011;14240;51.064;16.612;2022-12-18T11:34:59;56.83;;;21.43;;
26598;SDS011;14240;51.064;16.612;2022-12-18T11:37:29;65.05;;;23.50;;
26598;SDS011;14240;51.064;16.612;2022-12-18T11:39:57;63.83;;;23.52;;
26598;SDS011;14240;51.064;16.612;2022-12-18T11:50:44;66.15;;;23.70;;
26598;SDS011;14240;51.064;16.612;2022-12-18T11:53:11;67.22;;;25.40;;
26598;SDS011;14240;51.064;16.612;2022-12-18T12:15:27;65.45;;;22.92;;
26598;SDS011;14240;51.064;16.612;2022-12-18T12:26:43;61.78;;;19.80;;
26598;SDS011;14240;51.064;16.612;2022-12-18T12:32:10;73.75;;;26.10;;
26598;SDS011;14240;51.064;16.612;2022-12-18T12:40:49;66.13;;;21.45;;
26598;SDS011;14240;51.064;16.612;2022-12-18T12:43:34;56.72;;;21.23;;
26598;SDS011;14240;51.064;16.612;2022-12-18T12:46:07;50.08;;;18.98;;
26598;SDS011;14240;51.064;16.612;2022-12-18T12:48:43;55.55;;;18.92;;
26598;SDS011;14240;51.064;16.612;2022-12-18T12:51:19;58.40;;;17.60;;
26598;SDS011;14240;51.064;16.612;2022-12-18T12:53:45;54.42;;;18.88;;
26598;SDS011;14240;51.064;16.612;2022-12-18T12:56:13;59.55;;;20.40;;
26598;SDS011;14240;51.064;16.612;2022-12-18T13:04:47;56.80;;;17.48;;
26598;SDS011;14240;51.064;16.612;2022-12-18T13:12:58;50.65;;;17.48;;
26598;SDS011;14240;51.064;16.612;2022-12-18T13:15:34;48.50;;;15.25;;
26598;SDS011;14240;51.064;16.612;2022-12-18T13:26:34;53.00;;;17.45;;
26598;SDS011;14240;51.064;16.612;2022-12-18T13:31:13;55.20;;;17.35;;
26598;SDS011;14240;51.064;16.612;2022-12-18T13:36:25;55.47;;;20.58;;
26598;SDS011;14240;51.064;16.612;2022-12-18T13:39:09;45.53;;;16.13;;
26598;SDS011;14240;51.064;16.612;2022-12-18T13:41:35;54.53;;;19.25;;
26598;SDS011;14240;51.064;16.612;2022-12-18T13:44:11;50.95;;;17.27;;
26598;SDS011;14240;51.064;16.612;2022-12-18T13:46:57;60.77;;;17.90;;
26598;SDS011;14240;51.064;16.612;2022-12-18T13:49:26;59.60;;;19.17;;
26598;SDS011;14240;51.064;16.612;2022-12-18T13:52:18;62.25;;;18.95;;
26598;SDS011;14240;51.064;16.612;2022-12-18T13:54:55;63.55;;;19.80;;
26598;SDS011;14240;51.064;16.612;2022-12-18T13:57:29;60.10;;;18.85;;
26598;SDS011;14240;51.064;16.612;2022-12-18T14:00:17;62.70;;;21.35;;
26598;SDS011;14240;51.064;16.612;2022-12-18T14:02:50;60.90;;;19.58;;
26598;SDS011;14240;51.064;16.612;2022-12-18T14:05:26;57.65;;;20.02;;
26598;SDS011;14240;51.064;16.612;2022-12-18T14:07:54;63.53;;;22.98;;
26598;SDS011;14240;51.064;16.612;2022-12-18T14:10:24;69.88;;;21.60;;
26598;SDS011;14240;51.064;16.612;2022-12-18T14:12:50;70.50;;;22.20;;
26598;SDS011;14240;51.064;16.612;2022-12-18T14:15:28;71.35;;;23.25;;
26598;SDS011;14240;51.064;16.612;2022-12-18T14:18:01;79.28;;;23.23;;
26598;SDS011;14240;51.064;16.612;2022-12-18T14:20:29;76.55;;;22.42;;
26598;SDS011;14240;51.064;16.612;2022-12-18T14:22:58;74.80;;;21.13;;
26598;SDS011;14240;51.064;16.612;2022-12-18T14:25:29;64.82;;;18.80;;
26598;SDS011;14240;51.064;16.612;2022-12-18T14:30:40;69.93;;;21.00;;
26598;SDS011;14240;51.064;16.612;2022-12-18T14:36:02;72.07;;;22.35;;
26598;SDS011;14240;51.064;16.612;2022-12-18T14:38:32;75.57;;;23.88;;
26598;SDS011;14240;51.064;16.612;2022-12-18T14:41:04;88.25;;;26.90;;
26598;SDS011;14240;51.064;16.612;2022-12-18T14:43:34;75.50;;;24.40;;
26598;SDS011;14240;51.064;16.612;2022-12-18T14:46:01;80.90;;;26.33;;
26598;SDS011;14240;51.064;16.612;2022-12-18T14:48:34;79.88;;;25.75;;
26598;SDS011;14240;51.064;16.612;2022-12-18T14:51:01;90.25;;;25.50;;
26598;SDS011;14240;51.064;16.612;2022-12-18T14:53:33;96.05;;;30.20;;
26598;SDS011;14240;51.064;16.612;2022-12-18T14:56:12;79.82;;;25.67;;
26598;SDS011;14240;51.064;16.612;2022-12-18T14:58:50;83.20;;;25.08;;
26598;SDS011;14240;51.064;16.612;2022-12-18T15:01:32;101.95;;;30.40;;
26598;SDS011;14240;51.064;16.612;2022-12-18T15:03:59;116.85;;;39.08;;
26598;SDS011;14240;51.064;16.612;2022-12-18T15:06:31;78.20;;;23.15;;
26598;SDS011;14240;51.064;16.612;2022-12-18T15:09:00;81.13;;;26.15;;
26598;SDS011;14240;51.064;16.612;2022-12-18T15:11:35;86.45;;;26.10;;
26598;SDS011;14240;51.064;16.612;2022-12-18T15:14:22;75.75;;;23.02;;
26598;SDS011;14240;51.064;16.612;2022-12-18T15:16:53;96.57;;;28.17;;
26598;SDS011;14240;51.064;16.612;2022-12-18T15:19:20;86.82;;;24.58;;
26598;SDS011;14240;51.064;16.612;2022-12-18T15:21:49;91.65;;;24.05;;
26598;SDS011;14240;51.064;16.612;2022-12-18T15:24:18;76.53;;;23.80;;
26598;SDS011;14240;51.064;16.612;2022-12-18T15:26:49;85.07;;;22.70;;
26598;SDS011;14240;51.064;16.612;2022-12-18T15:29:18;81.00;;;23.80;;
26598;SDS011;14240;51.064;16.612;2022-12-18T15:32:00;97.78;;;26.30;;
26598;SDS011;14240;51.064;16.612;2022-12-18T15:34:28;88.88;;;23.98;;
26598;SDS011;14240;51.064;16.612;2022-12-18T15:36:54;94.68;;;23.58;;
26598;SDS011;14240;51.064;16.612;2022-12-18T15:39:20;80.53;;;24.95;;
26598;SDS011;14240;51.064;16.612;2022-12-18T15:41:46;92.47;;;25.95;;
26598;SDS011;14240;51.064;16.612;2022-12-18T15:44:30;71.28;;;22.77;;
26598;SDS011;14240;51.064;16.612;2022-12-18T15:46:56;82.60;;;23.42;;
26598;SDS011;14240;51.064;16.612;2022-12-18T15:49:22;105.03;;;27.67;;
26598;SDS011;14240;51.064;16.612;2022-12-18T15:51:52;86.15;;;25.88;;
26598;SDS011;14240;51.064;16.612;2022-12-18T15:54:21;100.07;;;27.35;;
26598;SDS011;14240;51.064;16.612;2022-12-18T15:57:08;91.05;;;24.63;;
26598;SDS011;14240;51.064;16.612;2022-12-18T15:59:52;96.88;;;28.73;;
26598;SDS011;14240;51.064;16.612;2022-12-18T16:02:23;86.93;;;27.30;;
26598;SDS011;14240;51.064;16.612;2022-12-18T16:04:50;89.07;;;26.70;;
26598;SDS011;14240;51.064;16.612;2022-12-18T16:07:17;95.15;;;28.17;;
26598;SDS011;14240;51.064;16.612;2022-12-18T16:09:43;94.20;;;28.52;;
26598;SDS011;14240;51.064;16.612;2022-12-18T16:12:13;78.90;;;25.45;;
26598;SDS011;14240;51.064;16.612;2022-12-18T16:14:41;81.53;;;25.27;;
26598;SDS011;14240;51.064;16.612;2022-12-18T16:17:09;101.68;;;29.20;;
26598;SDS011;14240;51.064;16.612;2022-12-18T16:19:35;96.80;;;28.15;;
26598;SDS011;14240;51.064;16.612;2022-12-18T16:22:02;100.07;;;27.98;;
26598;SDS011;14240;51.064;16.612;2022-12-18T16:24:29;89.75;;;27.08;;
26598;SDS011;14240;51.064;16.612;2022-12-18T16:26:57;84.53;;;23.77;;
26598;SDS011;14240;51.064;16.612;2022-12-18T16:29:24;73.72;;;21.58;;
26598;SDS011;14240;51.064;16.612;2022-12-18T16:31:54;128.05;;;30.25;;
26598;SDS011;14240;51.064;16.612;2022-12-18T16:36:53;87.65;;;26.13;;
26598;SDS011;14240;51.064;16.612;2022-12-18T16:39:23;112.20;;;29.38;;